Time;durP1;ratioP1;P1;durP2;ratioP2;P2;SDS_P1;SDS_P2;PMS_P1;PMS_P2;Temp;Humidity;BMP_temperature;BMP_pressure;BME280_temperature;BME280_humidity;BME280_pressure;Samples;Min_cycle;Max_cycle;Signal;HPM_P1;HPM_P2
2021/04/22 00:04:23;;;;;;;23.13;7.43;;;;;;;9.64;100.00;99221.91;10357830;28;20204;-75
2021/04/22 00:09:42;;;;;;;10.63;4.97;;;;;;;9.66;100.00;99214.06;10373503;28;20687;-75
2021/04/22 00:15:04;;;;;;;14.93;8.20;;;;;;;9.64;100.00;99213.66;10356955;28;20177;-75
2021/04/22 00:20:24;;;;;;;9.20;5.50;;;;;;;9.57;100.00;99217.16;10358118;28;20177;-75
2021/04/22 00:25:44;;;;;;;5.90;4.00;;;;;;;9.56;100.00;99215.63;10380294;28;20177;-75
2021/04/22 00:31:03;;;;;;;6.00;5.00;;;;;;;9.49;100.00;99217.56;10379055;28;20603;-74
2021/04/22 00:36:21;;;;;;;6.00;5.23;;;;;;;9.45;100.00;99216.75;10380375;28;20201;-75
2021/04/22 00:41:40;;;;;;;6.83;4.30;;;;;;;9.32;100.00;99225.75;10379810;28;20212;-75
2021/04/22 00:47:00;;;;;;;12.20;6.33;;;;;;;9.29;100.00;99216.31;10364232;28;20224;-75
2021/04/22 00:52:19;;;;;;;6.40;3.77;;;;;;;9.15;100.00;99230.00;10379539;28;20177;-74
2021/04/22 00:57:38;;;;;;;6.27;4.90;;;;;;;9.16;100.00;99234.31;10378284;28;20177;-76
2021/04/22 01:02:58;;;;;;;9.73;3.73;;;;;;;9.09;100.00;99234.28;10378864;28;20307;-75
2021/04/22 01:08:17;;;;;;;3.90;3.43;;;;;;;9.05;100.00;99236.22;10364287;28;20619;-74
2021/04/22 01:13:36;;;;;;;12.50;4.80;;;;;;;9.09;100.00;99252.69;10377362;28;20188;-74
2021/04/22 01:18:55;;;;;;;9.47;5.03;;;;;;;9.00;100.00;99249.53;10378669;28;20188;-74
2021/04/22 01:24:14;;;;;;;4.10;2.67;;;;;;;8.88;100.00;99258.06;10377834;28;20212;-74
2021/04/22 01:29:33;;;;;;;4.10;3.07;;;;;;;8.76;100.00;99259.19;10377042;28;20256;-75
2021/04/22 01:34:52;;;;;;;4.93;2.90;;;;;;;8.76;100.00;99269.38;10377609;28;20559;-76
2021/04/22 01:40:12;;;;;;;10.40;4.53;;;;;;;8.71;100.00;99274.44;10377802;28;20173;-76
2021/04/22 01:45:32;;;;;;;5.73;3.80;;;;;;;8.72;100.00;99282.28;10361180;28;20224;-76
2021/04/22 01:50:51;;;;;;;3.00;2.80;;;;;;;8.72;100.00;99294.03;10377442;28;20184;-76
2021/04/22 01:56:10;;;;;;;14.10;4.20;;;;;;;8.53;100.00;99290.75;10362353;28;20180;-76
2021/04/22 02:01:30;;;;;;;4.87;4.40;;;;;;;8.46;100.00;99300.91;10375348;28;20200;-76
2021/04/22 02:06:49;;;;;;;7.60;2.60;;;;;;;8.26;100.00;99302.28;10376864;28;20180;-76
2021/04/22 02:12:08;;;;;;;2.30;1.97;;;;;;;8.06;100.00;99309.13;10375341;28;20173;-75
2021/04/22 02:17:27;;;;;;;8.53;3.00;;;;;;;7.93;100.00;99325.03;10376468;28;20261;-75
2021/04/22 02:22:48;;;;;;;11.83;2.10;;;;;;;7.74;100.00;99334.59;10376042;28;20208;-76
2021/04/22 02:28:08;;;;;;;5.77;2.70;;;;;;;7.60;100.00;99346.16;10374647;28;20304;-75
2021/04/22 02:33:27;;;;;;;3.60;1.83;;;;;;;7.46;100.00;99345.22;10375864;28;20196;-76
2021/04/22 02:38:47;;;;;;;1.53;1.43;;;;;;;7.19;100.00;99355.41;10375608;28;20267;-75
2021/04/22 02:44:05;;;;;;;2.93;1.97;;;;;;;7.07;100.00;99359.53;10372763;28;20232;-74
2021/04/22 02:49:24;;;;;;;4.13;1.53;;;;;;;7.01;100.00;99363.75;10374179;28;20540;-76
2021/04/22 02:54:43;;;;;;;3.03;2.00;;;;;;;6.81;100.00;99359.53;10375078;28;20632;-74
2021/04/22 03:00:07;;;;;;;1.73;1.10;;;;;;;6.82;100.00;99374.78;10358744;28;20631;-77
2021/04/22 03:05:26;;;;;;;3.90;1.83;;;;;;;6.80;100.00;99377.09;10374858;28;20586;-75
2021/04/22 03:10:45;;;;;;;3.30;1.10;;;;;;;6.73;100.00;99368.78;10373771;28;20180;-75
2021/04/22 03:16:05;;;;;;;26.03;2.33;;;;;;;6.60;100.00;99373.66;10373101;28;20630;-75
2021/04/22 03:21:24;;;;;;;1.50;1.27;;;;;;;6.54;100.00;99375.13;10374043;28;20216;-74
2021/04/22 03:26:43;;;;;;;7.60;0.90;;;;;;;6.42;100.00;99390.91;10374053;28;20172;-75
2021/04/22 03:32:02;;;;;;;1.10;0.80;;;;;;;6.28;100.00;99398.88;10373889;28;20677;-74
2021/04/22 03:37:21;;;;;;;1.27;0.87;;;;;;;6.27;100.00;99400.03;10359110;28;20173;-75
2021/04/22 03:42:41;;;;;;;1.00;0.83;;;;;;;6.25;100.00;99407.00;10372430;28;20581;-74
2021/04/22 03:48:00;;;;;;;1.27;1.17;;;;;;;6.11;100.00;99401.25;10358183;28;20224;-74
2021/04/22 03:53:19;;;;;;;1.10;1.00;;;;;;;5.95;100.00;99416.94;10373438;28;20181;-73
2021/04/22 03:58:38;;;;;;;1.40;1.30;;;;;;;5.96;100.00;99427.53;10377447;28;20524;-74
2021/04/22 04:03:57;;;;;;;6.73;1.10;;;;;;;5.75;100.00;99435.25;10381219;28;20254;-75
2021/04/22 04:09:16;;;;;;;1.00;0.70;;;;;;;5.77;98.98;99446.63;10366629;28;20218;-73
2021/04/22 04:14:35;;;;;;;1.00;0.80;;;;;;;5.67;99.48;99444.44;10379955;28;20185;-76
2021/04/22 04:19:54;;;;;;;17.03;1.33;;;;;;;5.51;100.00;99449.16;10381012;28;20172;-77
2021/04/22 04:25:14;;;;;;;1.23;0.77;;;;;;;5.31;100.00;99454.94;10380208;28;20206;-76
2021/04/22 04:30:33;;;;;;;1.67;1.03;;;;;;;5.16;100.00;99472.13;10379186;28;20193;-76
2021/04/22 04:35:52;;;;;;;3.13;1.33;;;;;;;5.08;100.00;99475.81;10365509;28;20539;-74
2021/04/22 04:41:11;;;;;;;1.20;0.83;;;;;;;4.96;100.00;99488.75;10379087;28;20201;-75
2021/04/22 04:46:31;;;;;;;0.80;0.40;;;;;;;4.90;100.00;99501.09;10377718;28;20699;-75
2021/04/22 04:51:51;;;;;;;1.40;1.03;;;;;;;4.88;100.00;99506.09;10379797;28;20188;-75
2021/04/22 04:57:10;;;;;;;7.20;2.00;;;;;;;4.95;100.00;99520.69;10378213;28;20176;-75
2021/04/22 05:02:29;;;;;;;2.40;1.90;;;;;;;4.91;100.00;99536.16;10378916;28;20295;-75
2021/04/22 05:07:48;;;;;;;1.20;0.70;;;;;;;4.81;100.00;99533.94;10377323;28;20181;-75
2021/04/22 05:13:07;;;;;;;1.30;1.10;;;;;;;4.75;100.00;99548.19;10377538;28;20173;-76
2021/04/22 05:18:27;;;;;;;1.13;0.70;;;;;;;4.59;98.20;99561.00;10378632;28;20205;-75
2021/04/22 05:23:46;;;;;;;1.03;0.87;;;;;;;4.63;96.08;99561.09;10375205;28;20212;-75
2021/04/22 05:29:05;;;;;;;1.00;0.83;;;;;;;4.71;96.32;99569.09;10376598;28;20189;-75
2021/04/22 05:34:24;;;;;;;1.67;0.90;;;;;;;4.97;95.77;99572.91;10378095;28;20189;-74
2021/04/22 05:39:43;;;;;;;0.90;0.70;;;;;;;5.17;91.63;99582.00;10378051;28;20176;-76
2021/04/22 05:45:04;;;;;;;21.77;2.23;;;;;;;5.11;92.57;99588.84;10375822;28;20232;-74
2021/04/22 05:50:24;;;;;;;5.33;2.20;;;;;;;5.35;88.90;99588.69;10377336;28;20181;-75
2021/04/22 05:55:44;;;;;;;2.80;1.47;;;;;;;5.41;87.63;99593.53;10362546;28;20184;-75
2021/04/22 06:01:04;;;;;;;8.57;0.77;;;;;;;5.74;86.77;99591.19;10375592;28;20224;-74
2021/04/22 06:06:22;;;;;;;0.90;0.50;;;;;;;5.58;84.73;99612.25;10376700;28;20173;-74
2021/04/22 06:11:41;;;;;;;1.80;0.50;;;;;;;5.47;81.92;99608.47;10376661;28;20201;-74
2021/04/22 06:17:00;;;;;;;17.23;2.37;;;;;;;5.40;85.63;99605.56;10375423;28;20180;-74
2021/04/22 06:22:19;;;;;;;2.23;1.50;;;;;;;6.06;81.04;99620.03;10360612;28;20299;-74
2021/04/22 06:27:38;;;;;;;1.03;0.93;;;;;;;6.28;79.44;99625.63;10374749;28;20207;-74
2021/04/22 06:32:58;;;;;;;3.20;2.27;;;;;;;6.35;81.50;99632.03;10360841;28;20196;-74
2021/04/22 06:38:16;;;;;;;14.13;2.57;;;;;;;6.53;78.45;99637.88;10375428;28;20542;-74
2021/04/22 06:43:35;;;;;;;1.30;1.20;;;;;;;6.99;67.39;99632.16;10373742;28;20244;-73
2021/04/22 06:48:54;;;;;;;4.63;0.90;;;;;;;7.08;64.59;99632.72;10375194;28;20176;-73
2021/04/22 06:54:14;;;;;;;2.70;1.10;;;;;;;7.21;63.01;99645.88;10375309;28;20180;-76
2021/04/22 06:59:33;;;;;;;1.63;1.30;;;;;;;7.40;63.85;99655.97;10373775;28;20181;-76
2021/04/22 07:04:52;;;;;;;3.30;1.93;;;;;;;7.80;60.45;99657.06;10374400;28;20287;-75
2021/04/22 07:10:12;;;;;;;1.20;0.90;;;;;;;7.91;59.55;99658.03;10374612;28;20612;-76
2021/04/22 07:15:31;;;;;;;14.27;1.60;;;;;;;8.40;58.72;99659.56;10373396;28;20630;-75
2021/04/22 07:20:50;;;;;;;3.13;1.20;;;;;;;8.61;56.45;99664.56;10374204;28;20184;-75
2021/04/22 07:26:09;;;;;;;4.03;1.23;;;;;;;8.82;57.07;99660.91;10374314;28;20176;-75
2021/04/22 07:31:28;;;;;;;5.13;1.37;;;;;;;9.40;55.17;99667.44;10372364;28;20216;-75
2021/04/22 07:36:48;;;;;;;6.30;2.80;;;;;;;9.31;54.39;99677.16;10373938;28;20702;-75
2021/04/22 07:42:07;;;;;;;2.90;1.13;;;;;;;9.60;52.68;99669.59;10357609;28;20295;-76
2021/04/22 07:47:26;;;;;;;0.93;0.77;;;;;;;10.05;52.49;99669.25;10373176;28;20225;-75
2021/04/22 07:52:50;;;;;;;7.67;1.83;;;;;;;10.66;51.02;99667.25;10373809;28;20184;-76
2021/04/22 07:58:09;;;;;;;4.93;2.57;;;;;;;10.77;51.10;99679.13;10372279;28;20168;-75
2021/04/22 08:03:29;;;;;;;19.50;4.03;;;;;;;11.25;49.03;99689.53;10373147;28;20212;-75
2021/04/22 08:08:48;;;;;;;2.50;1.10;;;;;;;11.70;48.62;99672.34;10373430;28;20176;-75
2021/04/22 08:14:07;;;;;;;1.63;1.30;;;;;;;11.68;46.45;99676.66;10372093;28;20208;-75
2021/04/22 08:19:26;;;;;;;4.23;1.60;;;;;;;11.89;48.07;99679.44;10373163;28;20188;-75
2021/04/22 08:24:45;;;;;;;2.70;1.50;;;;;;;12.29;46.16;99680.59;10372522;28;20212;-75
2021/04/22 08:30:06;;;;;;;1.00;0.87;;;;;;;11.92;46.54;99678.66;10371730;28;20200;-74
2021/04/22 08:35:26;;;;;;;1.40;0.67;;;;;;;12.45;45.17;99678.22;10372737;28;20223;-75
2021/04/22 08:40:46;;;;;;;7.93;2.27;;;;;;;12.95;42.88;99685.19;10372803;28;20185;-75
2021/04/22 08:46:07;;;;;;;5.13;1.70;;;;;;;12.94;43.51;99678.09;10362099;28;20220;-75
2021/04/22 08:51:26;;;;;;;5.03;2.00;;;;;;;13.69;41.56;99684.41;10364379;28;20200;-75
2021/04/22 08:56:45;;;;;;;3.63;1.83;;;;;;;13.76;39.82;99678.84;10379607;28;20224;-75
2021/04/22 09:02:04;;;;;;;2.13;1.93;;;;;;;14.42;40.03;99688.59;10379162;28;20212;-75
2021/04/22 09:07:24;;;;;;;3.43;1.70;;;;;;;14.98;39.62;99679.69;10379262;28;20184;-76
2021/04/22 09:12:58;;;;;;;3.27;1.43;;;;;;;13.96;43.39;99684.63;10378024;28;20181;-75
2021/04/22 09:18:18;;;;;;;4.80;1.53;;;;;;;14.66;40.67;99688.31;10378818;28;20631;-75
2021/04/22 09:23:37;;;;;;;1.20;1.10;;;;;;;13.75;41.76;99682.78;10378124;28;20204;-76
2021/04/22 09:28:56;;;;;;;10.23;1.50;;;;;;;14.34;39.88;99687.09;10377117;28;20197;-75
2021/04/22 09:34:16;;;;;;;3.23;0.90;;;;;;;15.13;37.15;99681.88;10377185;28;20620;-75
2021/04/22 09:39:35;;;;;;;3.10;1.80;;;;;;;15.20;38.19;99668.69;10377050;28;20181;-75
2021/04/22 09:44:54;;;;;;;7.80;2.00;;;;;;;15.27;37.25;99684.50;10375794;28;20609;-77
2021/04/22 09:50:17;;;;;;;1.30;1.10;;;;;;;15.34;37.03;99684.38;10377581;28;20643;-77
2021/04/22 09:55:37;;;;;;;1.37;1.10;;;;;;;16.82;35.74;99669.25;10376990;28;20184;-76
2021/04/22 10:00:56;;;;;;;1.97;1.27;;;;;;;17.49;33.42;99668.69;10374719;28;20267;-76
2021/04/22 10:06:15;;;;;;;3.67;1.77;;;;;;;17.08;33.48;99662.78;10377084;28;20177;-77
2021/04/22 10:11:48;;;;;;;4.87;1.53;;;;;;;16.29;34.77;99651.22;10376655;28;20674;-76
2021/04/22 10:17:15;;;;;;;2.13;1.60;;;;;;;14.87;37.03;99668.72;10376120;28;20193;-77
2021/04/22 10:22:40;;;;;;;17.47;2.20;;;;;;;16.58;33.61;99647.50;10361098;28;20212;-77
2021/04/22 10:28:08;;;;;;;6.60;2.20;;;;;;;17.77;32.39;99651.31;10373794;28;20208;-77
2021/04/22 10:33:27;;;;;;;3.30;1.93;;;;;;;16.45;32.24;99654.13;10375993;28;20185;-77
2021/04/22 10:38:51;;;;;;;5.23;2.07;;;;;;;16.60;34.24;99641.53;10360829;28;20251;-77
2021/04/22 10:44:11;;;;;;;7.03;1.47;;;;;;;17.87;33.08;99639.16;10358732;28;20228;-76
2021/04/22 10:49:31;;;;;;;2.00;1.80;;;;;;;19.46;28.96;99633.22;10360532;28;20189;-77
2021/04/22 10:54:52;;;;;;;2.43;1.40;;;;;;;17.94;29.93;99644.53;10360293;28;20176;-77
2021/04/22 11:00:13;;;;;;;2.40;1.50;;;;;;;19.21;30.80;99641.53;10373873;28;20176;-77
2021/04/22 11:05:33;;;;;;;8.77;2.40;;;;;;;17.67;31.30;99635.69;10373505;28;20200;-76
2021/04/22 11:10:55;;;;;;;2.07;1.87;;;;;;;18.84;29.61;99625.44;10374829;28;20177;-77
2021/04/22 11:16:15;;;;;;;1.90;1.80;;;;;;;16.07;29.35;99617.47;10373227;28;20173;-77
2021/04/22 11:21:34;;;;;;;2.50;1.60;;;;;;;15.21;30.90;99628.69;10374364;28;20204;-76
2021/04/22 11:27:08;;;;;;;1.20;1.00;;;;;;;16.66;31.27;99606.47;10373150;28;20184;-76
2021/04/22 11:32:39;;;;;;;7.30;1.73;;;;;;;16.38;30.88;99604.25;10374245;28;20176;-77
2021/04/22 11:37:58;;;;;;;1.90;1.60;;;;;;;16.75;32.14;99606.69;10374077;28;20268;-77
2021/04/22 11:43:20;;;;;;;3.83;1.60;;;;;;;17.89;27.42;99603.31;10372421;28;20216;-78
2021/04/22 11:48:42;;;;;;;6.03;3.20;;;;;;;18.05;26.30;99606.09;10372983;28;20259;-78
2021/04/22 11:54:01;;;;;;;2.70;1.43;;;;;;;18.53;27.49;99615.19;10373363;28;20216;-78
2021/04/22 11:59:21;;;;;;;2.30;1.80;;;;;;;18.32;24.96;99620.56;10372457;28;20181;-77
2021/04/22 12:04:46;;;;;;;1.43;1.20;;;;;;;17.55;26.36;99622.44;10357651;28;20208;-76
2021/04/22 12:10:05;;;;;;;3.00;1.70;;;;;;;18.03;27.33;99619.66;10373326;28;20685;-76
2021/04/22 12:15:25;;;;;;;1.53;1.33;;;;;;;18.91;26.72;99616.88;10372065;28;20263;-76
2021/04/22 12:20:45;;;;;;;1.60;1.20;;;;;;;19.67;24.21;99621.38;10365877;28;20205;-78
2021/04/22 12:26:21;;;;;;;2.70;1.77;;;;;;;20.15;26.04;99624.59;10380974;28;20193;-76
2021/04/22 12:31:43;;;;;;;2.43;1.80;;;;;;;19.69;24.79;99608.53;10379389;28;20197;-77
2021/04/22 12:37:09;;;;;;;3.13;1.60;;;;;;;19.99;25.02;99588.41;10365681;28;20624;-77
2021/04/22 12:42:30;;;;;;;2.43;1.40;;;;;;;19.11;25.44;99602.78;10378797;28;20200;-77
2021/04/22 12:47:57;;;;;;;3.80;1.73;;;;;;;19.73;25.38;99602.81;10379234;28;20678;-77
2021/04/22 12:53:22;;;;;;;5.20;1.70;;;;;;;19.48;24.59;99597.25;10379822;28;20181;-77
2021/04/22 12:59:07;;;;;;;2.53;1.37;;;;;;;19.88;24.13;99587.16;10378467;28;20165;-77
2021/04/22 13:04:26;;;;;;;5.73;1.40;;;;;;;20.42;23.32;99589.31;10364162;28;20239;-77
2021/04/22 13:09:45;;;;;;;5.90;1.30;;;;;;;20.12;23.00;99580.78;10378849;28;20189;-78
2021/04/22 13:15:08;;;;;;;1.47;1.10;;;;;;;19.88;24.47;99582.38;10337344;28;20193;-78
2021/04/22 13:20:27;;;;;;;2.00;1.17;;;;;;;19.20;24.55;99592.56;10338325;28;20185;-78
2021/04/22 13:25:46;;;;;;;3.83;1.27;;;;;;;18.78;27.06;99579.06;10337547;28;20213;-77
2021/04/22 13:31:26;;;;;;;3.30;1.90;;;;;;;19.56;24.12;99574.25;10335739;28;20557;-77
2021/04/22 13:37:00;;;;;;;2.70;1.20;;;;;;;20.91;23.61;99570.75;10336754;28;20213;-77
2021/04/22 13:42:27;;;;;;;2.53;2.00;;;;;;;20.01;24.02;99583.16;10335931;28;20214;-77
2021/04/22 13:47:46;;;;;;;2.20;1.20;;;;;;;20.42;26.20;99575.34;10283337;28;20230;-76
2021/04/22 13:53:08;;;;;;;2.87;1.50;;;;;;;20.99;23.53;99572.06;10296529;28;20182;-77
2021/04/22 13:58:36;;;;;;;2.33;1.53;;;;;;;19.25;25.44;99584.41;10295267;28;20178;-77
2021/04/22 14:03:55;;;;;;;3.77;2.10;;;;;;;19.23;25.51;99580.47;10287200;28;20214;-78
2021/04/22 14:09:14;;;;;;;2.60;1.60;;;;;;;19.85;24.67;99582.50;10296277;28;20178;-78
2021/04/22 14:14:34;;;;;;;5.37;1.77;;;;;;;19.59;23.89;99578.16;10294912;28;20182;-77
2021/04/22 14:19:53;;;;;;;2.03;1.30;;;;;;;19.45;24.65;99581.41;10295804;28;20178;-77
2021/04/22 14:25:13;;;;;;;4.43;1.60;;;;;;;18.60;26.52;99575.97;10295164;28;20214;-77
2021/04/22 14:30:32;;;;;;;1.40;1.27;;;;;;;19.26;25.45;99585.94;10294033;28;20202;-77
2021/04/22 14:35:51;;;;;;;1.50;1.20;;;;;;;19.57;23.39;99577.81;10293539;28;20174;-77
2021/04/22 14:41:10;;;;;;;1.50;1.07;;;;;;;19.29;25.85;99589.88;10278876;28;20178;-77
2021/04/22 14:46:29;;;;;;;2.33;1.10;;;;;;;19.64;24.37;99583.97;10323978;28;20240;-77
2021/04/22 14:51:49;;;;;;;4.83;1.83;;;;;;;18.04;24.96;99587.81;10360698;28;20188;-77
2021/04/22 14:57:08;;;;;;;1.60;1.23;;;;;;;18.71;25.92;99582.03;10373825;28;20176;-77
2021/04/22 15:02:28;;;;;;;3.03;1.97;;;;;;;19.48;24.84;99586.88;10374943;28;20235;-78
2021/04/22 15:07:47;;;;;;;1.80;0.90;;;;;;;19.33;25.51;99591.34;10373796;28;20173;-78
2021/04/22 15:13:06;;;;;;;3.30;1.40;;;;;;;18.88;25.28;99600.25;10373493;28;20259;-78
2021/04/22 15:18:26;;;;;;;3.37;1.10;;;;;;;19.44;24.86;99602.94;10359254;28;20184;-77
2021/04/22 15:23:45;;;;;;;2.67;1.23;;;;;;;19.23;25.41;99596.44;10373975;28;20671;-78
2021/04/22 15:29:04;;;;;;;1.73;1.63;;;;;;;19.90;25.83;99601.47;10372737;28;20200;-77
2021/04/22 15:34:23;;;;;;;5.03;1.83;;;;;;;18.40;27.32;99605.22;10373221;28;20184;-78
2021/04/22 15:39:42;;;;;;;1.50;1.07;;;;;;;17.03;28.69;99609.66;10374105;28;20215;-77
2021/04/22 15:45:03;;;;;;;2.73;1.40;;;;;;;17.84;27.65;99603.84;10371919;28;20318;-78
2021/04/22 15:50:25;;;;;;;3.13;2.00;;;;;;;16.44;29.85;99614.44;10358905;28;20577;-77
2021/04/22 15:55:45;;;;;;;2.03;1.03;;;;;;;17.39;27.57;99614.06;10381491;28;20180;-78
2021/04/22 16:01:04;;;;;;;4.13;1.57;;;;;;;17.61;29.28;99626.25;10380588;28;20184;-78
2021/04/22 16:06:23;;;;;;;4.23;1.90;;;;;;;17.40;28.83;99621.19;10380564;28;20627;-78
2021/04/22 16:11:42;;;;;;;1.60;1.27;;;;;;;17.51;28.70;99620.94;10381475;28;20177;-77
2021/04/22 16:17:00;;;;;;;2.70;1.40;;;;;;;17.31;29.01;99617.44;10379857;28;20627;-77
2021/04/22 16:22:19;;;;;;;4.40;1.53;;;;;;;17.82;28.21;99620.19;10380860;28;20208;-76
2021/04/22 16:27:39;;;;;;;2.73;2.53;;;;;;;17.52;29.58;99620.53;10379575;28;20193;-77
2021/04/22 16:32:58;;;;;;;3.20;1.87;;;;;;;16.11;29.60;99625.72;10380752;28;20176;-77
2021/04/22 16:38:17;;;;;;;1.07;0.87;;;;;;;15.74;32.07;99625.97;10365714;28;20169;-77
2021/04/22 16:43:36;;;;;;;1.30;1.20;;;;;;;15.25;33.51;99634.22;10377377;28;20593;-77
2021/04/22 16:48:55;;;;;;;3.43;1.63;;;;;;;15.23;33.49;99650.44;10380118;28;20180;-77
2021/04/22 16:54:14;;;;;;;5.57;2.03;;;;;;;14.83;33.60;99648.56;10378724;28;20177;-77
2021/04/22 16:59:33;;;;;;;7.50;1.83;;;;;;;14.59;33.40;99659.94;10363445;28;20173;-76
2021/04/22 17:04:52;;;;;;;1.40;1.30;;;;;;;14.18;34.00;99666.66;10377714;28;20240;-76
2021/04/22 17:10:11;;;;;;;13.43;1.40;;;;;;;14.05;33.86;99662.81;10379285;28;20172;-76
2021/04/22 17:15:30;;;;;;;3.43;1.30;;;;;;;13.76;35.39;99664.25;10377751;28;20616;-76
2021/04/22 17:20:49;;;;;;;13.27;1.67;;;;;;;13.71;35.89;99657.16;10379048;28;20181;-77
2021/04/22 17:26:09;;;;;;;1.97;1.87;;;;;;;13.74;35.49;99675.69;10378611;28;20201;-77
2021/04/22 17:31:28;;;;;;;1.77;1.37;;;;;;;13.60;36.07;99681.31;10362187;28;20531;-76
2021/04/22 17:36:47;;;;;;;6.90;2.40;;;;;;;13.84;35.71;99682.34;10378280;28;20176;-76
2021/04/22 17:42:07;;;;;;;1.30;1.00;;;;;;;13.99;35.72;99686.56;10376913;28;20245;-78
2021/04/22 17:47:26;;;;;;;2.80;1.87;;;;;;;13.39;36.68;99688.94;10377283;28;20229;-76
2021/04/22 17:52:46;;;;;;;5.03;1.13;;;;;;;12.88;38.00;99704.56;10377457;28;20181;-75
2021/04/22 17:58:05;;;;;;;3.50;1.70;;;;;;;12.37;38.56;99707.00;10375028;28;20185;-76
2021/04/22 18:03:24;;;;;;;2.67;1.63;;;;;;;12.29;38.66;99704.66;10375737;28;20581;-76
2021/04/22 18:08:43;;;;;;;6.00;2.10;;;;;;;12.05;39.23;99708.22;10376969;28;20176;-75
2021/04/22 18:14:02;;;;;;;4.80;1.83;;;;;;;11.80;40.44;99720.38;10374931;28;20177;-79
2021/04/22 18:19:22;;;;;;;2.63;1.70;;;;;;;11.63;41.62;99724.69;10376562;28;20177;-76
2021/04/22 18:24:41;;;;;;;7.90;2.50;;;;;;;11.62;42.16;99731.38;10374807;28;20216;-77
2021/04/22 18:30:00;;;;;;;1.40;1.17;;;;;;;11.43;42.85;99739.94;10359815;28;20188;-78
2021/04/22 18:35:19;;;;;;;3.47;1.03;;;;;;;11.19;43.13;99753.66;10376009;28;20185;-78
2021/04/22 18:40:38;;;;;;;1.60;1.50;;;;;;;10.99;44.01;99755.09;10375604;28;20207;-76
2021/04/22 18:45:59;;;;;;;2.47;1.40;;;;;;;10.73;44.72;99754.56;10373355;28;20232;-76
2021/04/22 18:51:18;;;;;;;3.40;1.60;;;;;;;10.55;45.97;99768.22;10375213;28;20181;-75
2021/04/22 18:56:37;;;;;;;2.60;1.50;;;;;;;10.49;46.01;99769.75;10374200;28;20655;-76
2021/04/22 19:01:56;;;;;;;4.37;2.13;;;;;;;10.41;46.57;99784.63;10373528;28;20659;-75
2021/04/22 19:07:15;;;;;;;3.70;1.63;;;;;;;10.25;46.34;99779.78;10374780;28;20525;-75
2021/04/22 19:12:34;;;;;;;5.07;1.80;;;;;;;10.18;46.67;99790.72;10372302;28;20181;-76
2021/04/22 19:17:53;;;;;;;5.23;1.60;;;;;;;10.03;47.92;99780.72;10374167;28;20180;-75
2021/04/22 19:23:12;;;;;;;1.33;1.23;;;;;;;9.79;48.48;99789.50;10373787;28;20236;-76
2021/04/22 19:28:31;;;;;;;2.93;2.10;;;;;;;9.60;49.74;99800.69;10371823;28;20582;-75
2021/04/22 19:33:51;;;;;;;2.93;2.50;;;;;;;9.56;50.00;99817.13;10359049;28;20181;-75
2021/04/22 19:39:10;;;;;;;24.93;1.57;;;;;;;9.38;49.90;99814.53;10373823;28;20184;-75
2021/04/22 19:44:29;;;;;;;2.03;1.20;;;;;;;9.14;50.77;99818.53;10371915;28;20232;-75
2021/04/22 19:49:49;;;;;;;2.57;2.37;;;;;;;8.99;52.28;99829.69;10373402;28;20639;-75
2021/04/22 19:55:12;;;;;;;2.87;2.53;;;;;;;8.77;54.01;99817.63;10373702;28;20201;-75
2021/04/22 20:00:32;;;;;;;2.70;2.27;;;;;;;8.66;54.49;99826.03;10371503;28;20172;-75
2021/04/22 20:05:51;;;;;;;9.17;2.10;;;;;;;8.68;54.57;99838.25;10372916;28;20204;-74
2021/04/22 20:11:10;;;;;;;2.80;1.80;;;;;;;8.71;55.00;99840.22;10372469;28;20205;-74
2021/04/22 20:16:30;;;;;;;2.10;1.40;;;;;;;8.49;55.90;99841.06;10372042;28;20255;-74
2021/04/22 20:21:49;;;;;;;2.20;1.30;;;;;;;8.32;56.83;99838.81;10373234;28;20212;-75
2021/04/22 20:27:08;;;;;;;4.77;2.40;;;;;;;8.16;57.69;99843.63;10372166;28;20651;-74
2021/04/22 20:32:27;;;;;;;2.50;2.30;;;;;;;7.98;58.33;99844.44;10373100;28;20168;-75
2021/04/22 20:37:46;;;;;;;1.73;1.13;;;;;;;7.87;58.45;99845.41;10374131;28;20168;-76
2021/04/22 20:43:06;;;;;;;13.20;3.83;;;;;;;7.74;58.80;99855.72;10377772;28;20208;-76
2021/04/22 20:48:27;;;;;;;8.50;1.97;;;;;;;7.56;59.00;99862.78;10380331;28;20181;-75
2021/04/22 20:53:46;;;;;;;2.43;1.50;;;;;;;7.52;59.34;99852.91;10364980;28;20185;-75
2021/04/22 20:59:05;;;;;;;2.70;1.80;;;;;;;7.40;59.66;99866.72;10378361;28;20165;-75
2021/04/22 21:04:24;;;;;;;2.07;1.77;;;;;;;7.36;60.01;99872.13;10378951;28;20208;-75
2021/04/22 21:09:43;;;;;;;7.50;2.23;;;;;;;7.21;60.09;99867.50;10379292;28;20534;-75
2021/04/22 21:15:05;;;;;;;2.10;1.87;;;;;;;7.19;60.13;99858.84;10377882;28;20574;-75
2021/04/22 21:20:26;;;;;;;2.40;2.00;;;;;;;7.14;61.07;99867.34;10378895;28;20177;-75
2021/04/22 21:25:45;;;;;;;2.20;1.97;;;;;;;7.04;61.69;99860.84;10377848;28;20220;-75
2021/04/22 21:31:04;;;;;;;1.90;1.43;;;;;;;7.03;62.11;99868.28;10376284;28;20185;-74
2021/04/22 21:36:22;;;;;;;2.47;1.70;;;;;;;6.95;61.95;99868.44;10362530;28;20627;-75
2021/04/22 21:41:42;;;;;;;4.17;1.30;;;;;;;6.64;62.78;99882.19;10377843;28;20204;-75
2021/04/22 21:47:04;;;;;;;1.77;1.20;;;;;;;6.36;64.89;99876.81;10375071;28;20679;-74
2021/04/22 21:52:24;;;;;;;1.47;1.37;;;;;;;6.14;67.28;99873.88;10377041;28;20184;-74
2021/04/22 21:57:43;;;;;;;2.63;1.30;;;;;;;6.12;68.33;99884.38;10376202;28;20173;-74
2021/04/22 22:03:03;;;;;;;2.70;2.13;;;;;;;5.98;69.16;99881.25;10361953;28;20216;-74
2021/04/22 22:08:22;;;;;;;1.57;1.00;;;;;;;5.90;69.84;99881.41;10377086;28;20176;-74
2021/04/22 22:13:41;;;;;;;0.90;0.60;;;;;;;5.86;69.65;99884.06;10360683;28;20630;-75
2021/04/22 22:19:00;;;;;;;2.13;1.93;;;;;;;5.79;71.02;99883.88;10376775;28;20611;-75
2021/04/22 22:24:21;;;;;;;1.00;0.80;;;;;;;5.71;72.73;99886.69;10376054;28;20220;-75
2021/04/22 22:29:40;;;;;;;0.90;0.60;;;;;;;5.55;73.51;99894.03;10375139;28;20205;-74
2021/04/22 22:34:59;;;;;;;1.47;1.37;;;;;;;5.31;74.66;99894.13;10376084;28;20188;-74
2021/04/22 22:40:19;;;;;;;1.53;1.43;;;;;;;5.12;75.96;99901.31;10375687;28;20615;-74
2021/04/22 22:45:39;;;;;;;6.13;1.40;;;;;;;4.97;77.38;99899.31;10358672;28;20583;-74
2021/04/22 22:50:58;;;;;;;19.00;2.20;;;;;;;4.68;81.41;99899.56;10360460;28;20172;-74
2021/04/22 22:56:17;;;;;;;3.03;2.83;;;;;;;4.50;84.00;99906.34;10375047;28;20177;-74
2021/04/22 23:01:36;;;;;;;2.67;1.50;;;;;;;4.39;83.45;99904.41;10371786;28;20583;-74
2021/04/22 23:06:56;;;;;;;7.00;1.60;;;;;;;4.47;81.48;99909.75;10375078;28;20271;-74
2021/04/22 23:12:16;;;;;;;3.30;3.10;;;;;;;4.64;81.98;99908.75;10373507;28;20557;-75
2021/04/22 23:17:35;;;;;;;1.67;1.57;;;;;;;4.61;81.34;99902.03;10374829;28;20173;-75
2021/04/22 23:22:54;;;;;;;1.17;1.00;;;;;;;4.44;82.02;99901.47;10373309;28;20682;-75
2021/04/22 23:28:14;;;;;;;6.00;2.73;;;;;;;4.15;86.36;99913.31;10373061;28;20169;-74
2021/04/22 23:33:33;;;;;;;1.20;1.10;;;;;;;4.12;86.13;99916.72;10374295;28;20636;-74
2021/04/22 23:38:52;;;;;;;4.27;1.93;;;;;;;3.99;86.77;99906.16;10374020;28;20536;-75
2021/04/22 23:44:11;;;;;;;0.90;0.70;;;;;;;3.88;87.96;99904.19;10372088;28;20631;-75
2021/04/22 23:49:30;;;;;;;1.47;1.20;;;;;;;3.72;89.12;99903.19;10373828;28;20188;-75
2021/04/22 23:54:49;;;;;;;12.03;1.70;;;;;;;3.66;88.56;99912.69;10372893;28;20615;-74
